Samskip Ice — C6SO4 — position and weather

sailwx.info

Track history (hours):
 
Tides and Currents Weather Stations Pressure Air Temp Water Temp Dewpoint Dewpoint Depression Visibility Wind Speed Wind Dir Waves Ship Positions

Samskip Ice

Last reported at 2017-May-28 08:30 UTC. Time now 2017-May-28 08:42 UTC.
Position N 57°36' E 011°41'.

Length 86 m; draft 6 m.

Type: Cargo ship. MMSI: 311411000.

Date/timePositionNaut miles runAvg speedWind from/ knotsBaromVisibWave heightAir tempDewpointWater temp
2017-May-28 08:30N 57°36' E 011°41'611.4
2017-May-28 08:00N 57°30' E 011°38'611.9
2017-May-28 07:30N 57°24' E 011°38'612.0
2017-May-28 07:00N 57°18' E 011°39'612.0
2017-May-28 06:30N 57°12' E 011°39'611.8
2017-May-28 06:00N 57°06' E 011°41'611.9
2017-May-28 05:30N 57°01' E 011°45'611.8
2017-May-28 05:00N 56°55' E 011°49'612.2
2017-May-28 04:30N 56°50' E 011°53'712.2
2017-May-28 03:57N 56°44' E 011°59'512.1
2017-May-28 03:30N 56°39' E 012°03'611.9
2017-May-28 02:59N 56°34' E 012°08'611.9
2017-May-28 02:30N 56°28' E 012°13'611.9
2017-May-28 02:00N 56°23' E 012°18'612.3
2017-May-28 01:28N 56°17' E 012°23'612.2
2017-May-28 01:00N 56°12' E 012°28'713.1
2017-May-28 00:31N 56°07' E 012°34'713.6
2017-May-28 00:00N 56°01' E 012°41'713.1
2017-May-27 23:30N 55°55' E 012°44'713.2
2017-May-27 23:00N 55°48' E 012°43'612.4
2017-May-27 22:30N 55°42' E 012°41'612.2
2017-May-27 22:00N 55°36' E 012°42'611.3
2017-May-27 21:30N 55°30' E 012°43'612.6
2017-May-27 21:00N 55°24' E 012°41'611.6
2017-May-27 20:30N 55°18' E 012°42'612.3
2017-May-27 20:00N 55°16' E 012°52'612.1
2017-May-27 19:30N 55°16' E 013°02'712.4
2017-May-27 18:58N 55°15' E 013°14'612.5
2017-May-27 18:30N 55°15' E 013°24'612.6
2017-May-27 18:00N 55°15' E 013°35'612.5
2017-May-27 17:30N 55°14' E 013°46'612.7
2017-May-27 17:00N 55°14' E 013°57'612.7
2017-May-27 16:30N 55°14' E 014°09'611.4
2017-May-27 16:00N 55°15' E 014°18'612.1
2017-May-27 15:29N 55°20' E 014°25'612.0
2017-May-27 15:00N 55°24' E 014°32'1111.5
2017-May-27 14:00N 55°27' E 014°52'611.3
2017-May-27 13:30N 55°27' E 015°02'611.9
2017-May-27 13:00N 55°28' E 015°12'611.7
2017-May-27 12:30N 55°28' E 015°22'611.6
2017-May-27 12:00N 55°29' E 015°33'611.4
2017-May-27 11:30N 55°29' E 015°43'611.6
2017-May-27 11:00N 55°30' E 015°53'611.5
2017-May-27 10:30N 55°30' E 016°03'611.8
2017-May-27 10:00N 55°31' E 016°13'611.9
2017-May-27 09:30N 55°32' E 016°24'611.9
2017-May-27 09:00N 55°32' E 016°34'612.0
2017-May-27 08:30N 55°32' E 016°45'612.0
2017-May-27 08:00N 55°33' E 016°55'612.0
2017-May-27 07:30N 55°34' E 017°06'611.9
2017-May-27 07:00N 55°34' E 017°16'611.9
2017-May-27 06:30N 55°35' E 017°27'611.9
2017-May-27 06:00N 55°35' E 017°37'612.0
2017-May-27 05:30N 55°36' E 017°48'612.2
2017-May-27 05:00N 55°36' E 017°59'612.3
2017-May-27 04:30N 55°37' E 018°09'612.2
2017-May-27 04:00N 55°37' E 018°20'612.2
2017-May-27 03:30N 55°38' E 018°31'612.2
2017-May-27 03:00N 55°39' E 018°42'612.2
2017-May-27 02:30N 55°39' E 018°52'611.7
2017-May-27 02:00N 55°40' E 019°03'611.7
2017-May-27 01:30N 55°41' E 019°13'611.9
2017-May-27 01:00N 55°41' E 019°24'612.0
2017-May-27 00:30N 55°42' E 019°34'712.1
2017-May-26 23:53N 55°43' E 019°47'512.1
2017-May-26 23:30N 55°42' E 019°55'81 2.8
2017-May-25 18:56N 55°35' E 017°32'2311.8
2017-May-25 16:57N 55°32' E 016°52'511.9
2017-May-25 16:31N 55°31' E 016°42'611.9
2017-May-25 16:00N 55°30' E 016°32'611.9
2017-May-25 15:31N 55°29' E 016°22'611.2
2017-May-25 15:00N 55°29' E 016°12'1 1.8
2017-May-25 14:30N 55°29' E 016°10'1212.3
2017-May-25 13:30N 55°28' E 015°49'612.3
2017-May-25 13:01N 55°27' E 015°38'612.0
2017-May-25 12:30N 55°26' E 015°27'612.0
2017-May-25 12:01N 55°26' E 015°17'612.0
2017-May-25 11:31N 55°25' E 015°07'612.0
2017-May-25 11:00N 55°24' E 014°56'712.3
2017-May-25 10:27N 55°23' E 014°44'511.2
2017-May-25 10:00N 55°21' E 014°37'612.6
2017-May-25 09:31N 55°16' E 014°30'611.9
2017-May-25 09:00N 55°11' E 014°23'611.6
2017-May-25 08:30N 55°10' E 014°13'611.9
2017-May-25 08:00N 55°10' E 014°03'1311.7
2017-May-25 06:53N 55°11' E 013°40'811.8
2017-May-25 06:11N 55°12' E 013°25'1611.6
2017-May-25 04:49N 55°14' E 012°58'411.8
2017-May-25 04:31N 55°15' E 012°52'611.9
2017-May-25 04:00N 55°17' E 012°42'5 9.7
2017-May-25 03:31N 55°21' E 012°39'611.2
2017-May-25 03:00N 55°27' E 012°40'510.6
2017-May-25 02:31N 55°32' E 012°42'510.0
2017-May-25 02:00N 55°37' E 012°42'510.7
2017-May-25 01:30N 55°42' E 012°41'611.8
2017-May-25 01:00N 55°48' E 012°41'611.4
2017-May-25 00:31N 55°54' E 012°39'611.8
2017-May-25 00:00N 55°60' E 012°38'510.7
2017-May-24 23:31N 56°05' E 012°35'612.4
2017-May-24 23:00N 56°09' E 012°27'5012.0
2017-May-24 18:51N 56°54' E 011°46'412.3
2017-May-24 18:30N 56°58' E 011°44'612.3
2017-May-24 18:00N 57°04' E 011°40'812.5
2017-May-24 17:19N 57°11' E 011°34'412.3
2017-May-24 17:00N 57°15' E 011°32'612.0
2017-May-24 16:30N 57°21' E 011°28'712.2
2017-May-24 15:56N 57°27' E 011°23'611.7
2017-May-24 15:24N 57°30' E 011°13'411.2
2017-May-24 15:01N 57°32' E 011°06'611.9
2017-May-24 14:30N 57°36' E 010°56'10 9.1
2017-May-24 13:27N 57°42' E 010°42'1 2.1
2017-May-24 13:00N 57°43' E 010°42'1 2.6
2017-May-24 12:30N 57°44' E 010°43'2 5.0
2017-May-24 12:00N 57°46' E 010°44'713.1
2017-May-24 11:29N 57°47' E 010°32'7112.6
2017-May-24 05:54N 57°50' E 008°19'511.7
2017-May-24 05:30N 57°50' E 008°11'611.7
2017-May-24 05:00N 57°50' E 007°60'611.7
2017-May-24 04:30N 57°50' E 007°49'611.6
2017-May-24 04:00N 57°51' E 007°38'611.7
2017-May-24 03:30N 57°51' E 007°27'612.1
2017-May-24 03:00N 57°52' E 007°16'611.8
2017-May-24 02:29N 57°52' E 007°04'511.3
2017-May-24 02:00N 57°54' E 006°54'611.5
2017-May-24 01:30N 57°56' E 006°44'611.7
2017-May-24 01:00N 57°59' E 006°35'612.1
2017-May-24 00:30N 58°02' E 006°25'612.1
2017-May-24 00:00N 58°06' E 006°16'612.3
2017-May-23 23:30N 58°10' E 006°07'612.4
2017-May-23 23:00N 58°13' E 005°57'612.4
2017-May-23 22:30N 58°17' E 005°48'612.6
2017-May-23 22:00N 58°21' E 005°38'712.8
2017-May-23 21:30N 58°25' E 005°29'713.2
2017-May-23 21:00N 58°30' E 005°20'613.3
2017-May-23 20:30N 58°35' E 005°11'713.0
2017-May-23 20:00N 58°39' E 005°02'1012.5
2017-May-23 19:13N 58°47' E 004°49'312.6
2017-May-23 19:00N 58°49' E 004°46'612.5
2017-May-23 18:30N 58°53' E 004°38'39310.9
2017-May-22 06:20N 62°34' W 006°28'412.4
2017-May-22 06:00N 62°35' W 006°37'612.1
2017-May-22 05:30N 62°36' W 006°49'  
Track history (hours):
 
Tides and Currents Weather Stations Pressure Air Temp Water Temp Dewpoint Dewpoint Depression Visibility Wind Speed Wind Dir Waves Ship Positions

Samskip Ice

Last reported at 2017-May-28 08:30 UTC. Time now 2017-May-28 08:42 UTC.
Position N 57°36' E 011°41'.

Length 86 m; draft 6 m.

Type: Cargo ship. MMSI: 311411000.

Date/timePositionNaut miles runAvg speedWind from/ knotsBaromVisibWave heightAir tempDewpointWater temp
2017-May-28 08:30N 57°36' E 011°41'611.4
2017-May-28 08:00N 57°30' E 011°38'611.9
2017-May-28 07:30N 57°24' E 011°38'612.0
2017-May-28 07:00N 57°18' E 011°39'612.0
2017-May-28 06:30N 57°12' E 011°39'611.8
2017-May-28 06:00N 57°06' E 011°41'611.9
2017-May-28 05:30N 57°01' E 011°45'611.8
2017-May-28 05:00N 56°55' E 011°49'612.2
2017-May-28 04:30N 56°50' E 011°53'712.2
2017-May-28 03:57N 56°44' E 011°59'512.1
2017-May-28 03:30N 56°39' E 012°03'611.9
2017-May-28 02:59N 56°34' E 012°08'611.9
2017-May-28 02:30N 56°28' E 012°13'611.9
2017-May-28 02:00N 56°23' E 012°18'612.3
2017-May-28 01:28N 56°17' E 012°23'612.2
2017-May-28 01:00N 56°12' E 012°28'713.1
2017-May-28 00:31N 56°07' E 012°34'713.6
2017-May-28 00:00N 56°01' E 012°41'713.1
2017-May-27 23:30N 55°55' E 012°44'713.2
2017-May-27 23:00N 55°48' E 012°43'612.4
2017-May-27 22:30N 55°42' E 012°41'612.2
2017-May-27 22:00N 55°36' E 012°42'611.3
2017-May-27 21:30N 55°30' E 012°43'612.6
2017-May-27 21:00N 55°24' E 012°41'611.6
2017-May-27 20:30N 55°18' E 012°42'612.3
2017-May-27 20:00N 55°16' E 012°52'612.1
2017-May-27 19:30N 55°16' E 013°02'712.4
2017-May-27 18:58N 55°15' E 013°14'612.5
2017-May-27 18:30N 55°15' E 013°24'612.6
2017-May-27 18:00N 55°15' E 013°35'612.5
2017-May-27 17:30N 55°14' E 013°46'612.7
2017-May-27 17:00N 55°14' E 013°57'612.7
2017-May-27 16:30N 55°14' E 014°09'611.4
2017-May-27 16:00N 55°15' E 014°18'612.1
2017-May-27 15:29N 55°20' E 014°25'612.0
2017-May-27 15:00N 55°24' E 014°32'1111.5
2017-May-27 14:00N 55°27' E 014°52'611.3
2017-May-27 13:30N 55°27' E 015°02'611.9
2017-May-27 13:00N 55°28' E 015°12'611.7
2017-May-27 12:30N 55°28' E 015°22'611.6
2017-May-27 12:00N 55°29' E 015°33'611.4
2017-May-27 11:30N 55°29' E 015°43'611.6
2017-May-27 11:00N 55°30' E 015°53'611.5
2017-May-27 10:30N 55°30' E 016°03'611.8
2017-May-27 10:00N 55°31' E 016°13'611.9
2017-May-27 09:30N 55°32' E 016°24'611.9
2017-May-27 09:00N 55°32' E 016°34'612.0
2017-May-27 08:30N 55°32' E 016°45'612.0
2017-May-27 08:00N 55°33' E 016°55'612.0
2017-May-27 07:30N 55°34' E 017°06'611.9
2017-May-27 07:00N 55°34' E 017°16'611.9
2017-May-27 06:30N 55°35' E 017°27'611.9
2017-May-27 06:00N 55°35' E 017°37'612.0
2017-May-27 05:30N 55°36' E 017°48'612.2
2017-May-27 05:00N 55°36' E 017°59'612.3
2017-May-27 04:30N 55°37' E 018°09'612.2
2017-May-27 04:00N 55°37' E 018°20'612.2
2017-May-27 03:30N 55°38' E 018°31'612.2
2017-May-27 03:00N 55°39' E 018°42'612.2
2017-May-27 02:30N 55°39' E 018°52'611.7
2017-May-27 02:00N 55°40' E 019°03'611.7
2017-May-27 01:30N 55°41' E 019°13'611.9
2017-May-27 01:00N 55°41' E 019°24'612.0
2017-May-27 00:30N 55°42' E 019°34'712.1
2017-May-26 23:53N 55°43' E 019°47'512.1
2017-May-26 23:30N 55°42' E 019°55'81 2.8
2017-May-25 18:56N 55°35' E 017°32'2311.8
2017-May-25 16:57N 55°32' E 016°52'511.9
2017-May-25 16:31N 55°31' E 016°42'611.9
2017-May-25 16:00N 55°30' E 016°32'611.9
2017-May-25 15:31N 55°29' E 016°22'611.2
2017-May-25 15:00N 55°29' E 016°12'1 1.8
2017-May-25 14:30N 55°29' E 016°10'1212.3
2017-May-25 13:30N 55°28' E 015°49'612.3
2017-May-25 13:01N 55°27' E 015°38'612.0
2017-May-25 12:30N 55°26' E 015°27'612.0
2017-May-25 12:01N 55°26' E 015°17'612.0
2017-May-25 11:31N 55°25' E 015°07'612.0
2017-May-25 11:00N 55°24' E 014°56'712.3
2017-May-25 10:27N 55°23' E 014°44'511.2
2017-May-25 10:00N 55°21' E 014°37'612.6
2017-May-25 09:31N 55°16' E 014°30'611.9
2017-May-25 09:00N 55°11' E 014°23'611.6
2017-May-25 08:30N 55°10' E 014°13'611.9
2017-May-25 08:00N 55°10' E 014°03'1311.7
2017-May-25 06:53N 55°11' E 013°40'811.8
2017-May-25 06:11N 55°12' E 013°25'1611.6
2017-May-25 04:49N 55°14' E 012°58'411.8
2017-May-25 04:31N 55°15' E 012°52'611.9
2017-May-25 04:00N 55°17' E 012°42'5 9.7
2017-May-25 03:31N 55°21' E 012°39'611.2
2017-May-25 03:00N 55°27' E 012°40'510.6
2017-May-25 02:31N 55°32' E 012°42'510.0
2017-May-25 02:00N 55°37' E 012°42'510.7
2017-May-25 01:30N 55°42' E 012°41'611.8
2017-May-25 01:00N 55°48' E 012°41'611.4
2017-May-25 00:31N 55°54' E 012°39'611.8
2017-May-25 00:00N 55°60' E 012°38'510.7
2017-May-24 23:31N 56°05' E 012°35'612.4
2017-May-24 23:00N 56°09' E 012°27'5012.0
2017-May-24 18:51N 56°54' E 011°46'412.3
2017-May-24 18:30N 56°58' E 011°44'612.3
2017-May-24 18:00N 57°04' E 011°40'812.5
2017-May-24 17:19N 57°11' E 011°34'412.3
2017-May-24 17:00N 57°15' E 011°32'612.0
2017-May-24 16:30N 57°21' E 011°28'712.2
2017-May-24 15:56N 57°27' E 011°23'611.7
2017-May-24 15:24N 57°30' E 011°13'411.2
2017-May-24 15:01N 57°32' E 011°06'611.9
2017-May-24 14:30N 57°36' E 010°56'10 9.1
2017-May-24 13:27N 57°42' E 010°42'1 2.1
2017-May-24 13:00N 57°43' E 010°42'1 2.6
2017-May-24 12:30N 57°44' E 010°43'2 5.0
2017-May-24 12:00N 57°46' E 010°44'713.1
2017-May-24 11:29N 57°47' E 010°32'7112.6
2017-May-24 05:54N 57°50' E 008°19'511.7
2017-May-24 05:30N 57°50' E 008°11'611.7
2017-May-24 05:00N 57°50' E 007°60'611.7
2017-May-24 04:30N 57°50' E 007°49'611.6
2017-May-24 04:00N 57°51' E 007°38'611.7
2017-May-24 03:30N 57°51' E 007°27'612.1
2017-May-24 03:00N 57°52' E 007°16'611.8
2017-May-24 02:29N 57°52' E 007°04'511.3
2017-May-24 02:00N 57°54' E 006°54'611.5
2017-May-24 01:30N 57°56' E 006°44'611.7
2017-May-24 01:00N 57°59' E 006°35'612.1
2017-May-24 00:30N 58°02' E 006°25'612.1
2017-May-24 00:00N 58°06' E 006°16'612.3
2017-May-23 23:30N 58°10' E 006°07'612.4
2017-May-23 23:00N 58°13' E 005°57'612.4
2017-May-23 22:30N 58°17' E 005°48'612.6
2017-May-23 22:00N 58°21' E 005°38'712.8
2017-May-23 21:30N 58°25' E 005°29'713.2
2017-May-23 21:00N 58°30' E 005°20'613.3
2017-May-23 20:30N 58°35' E 005°11'713.0
2017-May-23 20:00N 58°39' E 005°02'1012.5
2017-May-23 19:13N 58°47' E 004°49'312.6
2017-May-23 19:00N 58°49' E 004°46'612.5
2017-May-23 18:30N 58°53' E 004°38'39310.9
2017-May-22 06:20N 62°34' W 006°28'412.4
2017-May-22 06:00N 62°35' W 006°37'612.1
2017-May-22 05:30N 62°36' W 006°49'  

Dump ship's entire track history